Decoded Metar for PAKH ( in _UNIDENTIFIED) (IATA:) | Meteo·Mobile Aviation Weather
aviador You're here:

PAKH Decoded Metar

in _UNIDENTIFIED
Report Time2019-03-21 02:24:00
UTC Time2019-03-21 02:29:10
Flight Rules lifr LIFR
Wind100° at 05 kt
W.Decomp.*RWY 04: 3.7 kt HW 3.3 kt RCW
W.Rank100° ranks 11
Current wind is below 100° avg. (12.2)
Visibility4828 m
Phenomena:Light Rain
Mist
Clouds:Overcast 004 Hf
Expected CloudBase > 400 ft AGL from Temp-Dew spread
Ceiling400 ft
Temp06°C (ISA -9)
Dew Point05°C (93% RH)
AAT3.1°C
QNH987 hPa
Density Alt-16 ft
Elevation46 ft
Report Wrong Elevation
Raw Report
SPECI PAKH 210224Z AUTO 10005KT 3SM -RA BR OVC004 06/05 A2915 RMK
AO2 CIG 003V007 P0002 $=

Extra information for PAKH:More info

Social comments